sensor_id;sensor_type;location;lat;lon;timestamp;P1;durP1;ratioP1;P2;durP2;ratioP2
19049;SDS011;9657;45.940;12.840;2023-03-31T00:01:33;5.53;;;4.20;;
19049;SDS011;9657;45.940;12.840;2023-03-31T00:04:07;5.63;;;4.80;;
19049;SDS011;9657;45.940;12.840;2023-03-31T00:06:37;5.33;;;4.37;;
19049;SDS011;9657;45.940;12.840;2023-03-31T00:09:07;5.43;;;4.53;;
19049;SDS011;9657;45.940;12.840;2023-03-31T00:11:35;4.40;;;4.00;;
19049;SDS011;9657;45.940;12.840;2023-03-31T00:14:02;6.93;;;4.40;;
19049;SDS011;9657;45.940;12.840;2023-03-31T00:16:31;5.10;;;4.47;;
19049;SDS011;9657;45.940;12.840;2023-03-31T00:18:58;5.43;;;4.63;;
19049;SDS011;9657;45.940;12.840;2023-03-31T00:21:27;5.27;;;4.20;;
19049;SDS011;9657;45.940;12.840;2023-03-31T00:23:58;7.70;;;4.30;;
19049;SDS011;9657;45.940;12.840;2023-03-31T00:26:26;6.77;;;4.57;;
19049;SDS011;9657;45.940;12.840;2023-03-31T00:28:53;6.43;;;4.47;;
19049;SDS011;9657;45.940;12.840;2023-03-31T00:31:21;6.10;;;4.53;;
19049;SDS011;9657;45.940;12.840;2023-03-31T00:33:48;5.03;;;4.50;;
19049;SDS011;9657;45.940;12.840;2023-03-31T00:36:16;5.77;;;4.60;;
19049;SDS011;9657;45.940;12.840;2023-03-31T00:38:47;5.67;;;4.03;;
19049;SDS011;9657;45.940;12.840;2023-03-31T00:41:15;5.13;;;4.10;;
19049;SDS011;9657;45.940;12.840;2023-03-31T00:46:26;5.50;;;4.37;;
19049;SDS011;9657;45.940;12.840;2023-03-31T00:48:58;9.33;;;5.00;;
19049;SDS011;9657;45.940;12.840;2023-03-31T00:51:26;6.00;;;4.43;;
19049;SDS011;9657;45.940;12.840;2023-03-31T00:53:58;5.83;;;4.50;;
19049;SDS011;9657;45.940;12.840;2023-03-31T00:56:29;5.10;;;4.60;;
19049;SDS011;9657;45.940;12.840;2023-03-31T00:59:00;5.50;;;4.00;;
19049;SDS011;9657;45.940;12.840;2023-03-31T01:04:07;5.80;;;4.23;;
19049;SDS011;9657;45.940;12.840;2023-03-31T01:06:36;5.50;;;3.67;;
19049;SDS011;9657;45.940;12.840;2023-03-31T01:09:12;4.63;;;4.13;;
19049;SDS011;9657;45.940;12.840;2023-03-31T01:11:41;6.47;;;4.30;;
19049;SDS011;9657;45.940;12.840;2023-03-31T01:14:10;5.70;;;4.57;;
19049;SDS011;9657;45.940;12.840;2023-03-31T01:16:38;4.60;;;4.20;;
19049;SDS011;9657;45.940;12.840;2023-03-31T01:19:06;6.67;;;3.70;;
19049;SDS011;9657;45.940;12.840;2023-03-31T01:21:50;4.70;;;4.03;;
19049;SDS011;9657;45.940;12.840;2023-03-31T01:27:46;4.63;;;3.77;;
19049;SDS011;9657;45.940;12.840;2023-03-31T01:30:36;4.60;;;4.03;;
19049;SDS011;9657;45.940;12.840;2023-03-31T01:42:34;5.10;;;3.73;;
19049;SDS011;9657;45.940;12.840;2023-03-31T01:45:05;4.80;;;4.33;;
19049;SDS011;9657;45.940;12.840;2023-03-31T01:47:43;7.60;;;4.13;;
19049;SDS011;9657;45.940;12.840;2023-03-31T01:50:15;5.83;;;4.20;;
19049;SDS011;9657;45.940;12.840;2023-03-31T01:52:51;6.37;;;4.17;;
19049;SDS011;9657;45.940;12.840;2023-03-31T01:55:25;4.37;;;3.97;;
19049;SDS011;9657;45.940;12.840;2023-03-31T01:58:01;4.53;;;3.80;;
19049;SDS011;9657;45.940;12.840;2023-03-31T02:00:35;5.40;;;3.90;;
19049;SDS011;9657;45.940;12.840;2023-03-31T02:03:08;4.57;;;3.67;;
19049;SDS011;9657;45.940;12.840;2023-03-31T02:05:42;5.57;;;4.00;;
19049;SDS011;9657;45.940;12.840;2023-03-31T02:08:12;4.60;;;3.90;;
19049;SDS011;9657;45.940;12.840;2023-03-31T02:10:43;4.83;;;4.07;;
19049;SDS011;9657;45.940;12.840;2023-03-31T02:13:13;4.77;;;4.00;;
19049;SDS011;9657;45.940;12.840;2023-03-31T02:15:44;4.97;;;3.87;;
19049;SDS011;9657;45.940;12.840;2023-03-31T02:18:17;6.00;;;4.00;;
19049;SDS011;9657;45.940;12.840;2023-03-31T02:20:50;5.73;;;3.90;;
19049;SDS011;9657;45.940;12.840;2023-03-31T02:23:21;5.60;;;3.67;;
19049;SDS011;9657;45.940;12.840;2023-03-31T02:25:54;5.47;;;3.67;;
19049;SDS011;9657;45.940;12.840;2023-03-31T02:28:27;4.67;;;3.80;;
19049;SDS011;9657;45.940;12.840;2023-03-31T02:30:58;5.23;;;3.40;;
19049;SDS011;9657;45.940;12.840;2023-03-31T02:33:33;4.57;;;3.37;;
19049;SDS011;9657;45.940;12.840;2023-03-31T02:36:00;4.20;;;3.43;;
19049;SDS011;9657;45.940;12.840;2023-03-31T02:38:28;5.90;;;3.13;;
19049;SDS011;9657;45.940;12.840;2023-03-31T02:41:01;5.33;;;3.90;;
19049;SDS011;9657;45.940;12.840;2023-03-31T02:43:29;4.70;;;3.30;;
19049;SDS011;9657;45.940;12.840;2023-03-31T02:45:56;6.30;;;3.73;;
19049;SDS011;9657;45.940;12.840;2023-03-31T02:48:24;3.83;;;3.33;;
19049;SDS011;9657;45.940;12.840;2023-03-31T02:50:59;5.87;;;3.60;;
19049;SDS011;9657;45.940;12.840;2023-03-31T02:53:54;5.20;;;3.23;;
19049;SDS011;9657;45.940;12.840;2023-03-31T02:56:35;5.87;;;3.37;;
19049;SDS011;9657;45.940;12.840;2023-03-31T02:59:21;4.87;;;3.57;;
19049;SDS011;9657;45.940;12.840;2023-03-31T03:02:05;5.00;;;3.30;;
19049;SDS011;9657;45.940;12.840;2023-03-31T03:04:48;4.17;;;3.23;;
19049;SDS011;9657;45.940;12.840;2023-03-31T03:07:37;3.33;;;3.03;;
19049;SDS011;9657;45.940;12.840;2023-03-31T03:10:13;5.97;;;3.03;;
19049;SDS011;9657;45.940;12.840;2023-03-31T03:12:47;3.87;;;3.47;;
19049;SDS011;9657;45.940;12.840;2023-03-31T03:15:25;5.13;;;3.37;;
19049;SDS011;9657;45.940;12.840;2023-03-31T03:17:55;3.93;;;3.00;;
19049;SDS011;9657;45.940;12.840;2023-03-31T03:20:23;5.20;;;3.63;;
19049;SDS011;9657;45.940;12.840;2023-03-31T03:22:51;6.40;;;3.00;;
19049;SDS011;9657;45.940;12.840;2023-03-31T03:25:18;4.00;;;3.40;;
19049;SDS011;9657;45.940;12.840;2023-03-31T03:27:45;4.03;;;3.27;;
19049;SDS011;9657;45.940;12.840;2023-03-31T03:30:13;4.03;;;2.97;;
19049;SDS011;9657;45.940;12.840;2023-03-31T03:32:41;4.73;;;2.83;;
19049;SDS011;9657;45.940;12.840;2023-03-31T03:35:09;5.43;;;3.27;;
19049;SDS011;9657;45.940;12.840;2023-03-31T03:37:36;4.20;;;3.10;;
19049;SDS011;9657;45.940;12.840;2023-03-31T03:40:04;4.40;;;3.00;;
19049;SDS011;9657;45.940;12.840;2023-03-31T03:42:32;4.03;;;3.20;;
19049;SDS011;9657;45.940;12.840;2023-03-31T03:45:00;4.87;;;3.50;;
19049;SDS011;9657;45.940;12.840;2023-03-31T03:47:27;4.93;;;3.23;;
19049;SDS011;9657;45.940;12.840;2023-03-31T03:49:55;4.33;;;2.90;;
19049;SDS011;9657;45.940;12.840;2023-03-31T03:52:22;5.30;;;2.80;;
19049;SDS011;9657;45.940;12.840;2023-03-31T03:54:49;3.00;;;2.60;;
19049;SDS011;9657;45.940;12.840;2023-03-31T03:57:16;3.23;;;2.93;;
19049;SDS011;9657;45.940;12.840;2023-03-31T03:59:43;2.97;;;2.67;;
19049;SDS011;9657;45.940;12.840;2023-03-31T04:02:10;3.73;;;2.80;;
19049;SDS011;9657;45.940;12.840;2023-03-31T04:04:37;4.60;;;2.90;;
19049;SDS011;9657;45.940;12.840;2023-03-31T04:07:06;3.53;;;2.90;;
19049;SDS011;9657;45.940;12.840;2023-03-31T04:09:33;3.77;;;2.87;;
19049;SDS011;9657;45.940;12.840;2023-03-31T04:12:00;5.97;;;2.57;;
19049;SDS011;9657;45.940;12.840;2023-03-31T04:14:27;3.90;;;2.70;;
19049;SDS011;9657;45.940;12.840;2023-03-31T04:16:54;3.23;;;2.63;;
19049;SDS011;9657;45.940;12.840;2023-03-31T04:19:22;4.03;;;3.10;;
19049;SDS011;9657;45.940;12.840;2023-03-31T04:21:50;2.90;;;2.40;;
19049;SDS011;9657;45.940;12.840;2023-03-31T04:24:24;4.07;;;2.40;;
19049;SDS011;9657;45.940;12.840;2023-03-31T04:26:54;4.20;;;2.83;;
19049;SDS011;9657;45.940;12.840;2023-03-31T04:29:21;5.87;;;3.37;;
19049;SDS011;9657;45.940;12.840;2023-03-31T04:31:51;4.17;;;2.73;;
19049;SDS011;9657;45.940;12.840;2023-03-31T04:34:18;5.20;;;2.60;;
19049;SDS011;9657;45.940;12.840;2023-03-31T04:36:51;4.30;;;2.80;;
19049;SDS011;9657;45.940;12.840;2023-03-31T04:39:20;4.90;;;2.93;;
19049;SDS011;9657;45.940;12.840;2023-03-31T04:41:52;3.87;;;2.10;;
19049;SDS011;9657;45.940;12.840;2023-03-31T04:44:19;4.30;;;2.53;;
19049;SDS011;9657;45.940;12.840;2023-03-31T04:46:46;4.33;;;2.40;;
19049;SDS011;9657;45.940;12.840;2023-03-31T04:49:13;3.97;;;2.50;;
19049;SDS011;9657;45.940;12.840;2023-03-31T04:51:40;3.37;;;2.40;;
19049;SDS011;9657;45.940;12.840;2023-03-31T04:54:09;2.63;;;2.37;;
19049;SDS011;9657;45.940;12.840;2023-03-31T04:56:36;5.10;;;2.90;;
19049;SDS011;9657;45.940;12.840;2023-03-31T04:59:04;3.47;;;2.40;;
19049;SDS011;9657;45.940;12.840;2023-03-31T05:01:32;3.60;;;2.40;;
19049;SDS011;9657;45.940;12.840;2023-03-31T05:04:00;4.47;;;2.40;;
19049;SDS011;9657;45.940;12.840;2023-03-31T05:06:27;3.50;;;2.23;;
19049;SDS011;9657;45.940;12.840;2023-03-31T05:08:55;4.20;;;2.50;;
19049;SDS011;9657;45.940;12.840;2023-03-31T05:11:22;4.47;;;2.37;;
19049;SDS011;9657;45.940;12.840;2023-03-31T05:13:50;5.00;;;2.77;;
19049;SDS011;9657;45.940;12.840;2023-03-31T05:16:18;6.83;;;2.47;;
19049;SDS011;9657;45.940;12.840;2023-03-31T05:18:45;4.83;;;2.33;;
19049;SDS011;9657;45.940;12.840;2023-03-31T05:21:13;5.67;;;2.47;;
19049;SDS011;9657;45.940;12.840;2023-03-31T05:23:41;4.73;;;2.63;;
19049;SDS011;9657;45.940;12.840;2023-03-31T05:26:09;3.67;;;2.37;;
19049;SDS011;9657;45.940;12.840;2023-03-31T05:28:36;3.50;;;2.30;;
19049;SDS011;9657;45.940;12.840;2023-03-31T05:31:04;3.07;;;2.43;;
19049;SDS011;9657;45.940;12.840;2023-03-31T05:33:33;5.10;;;2.77;;
19049;SDS011;9657;45.940;12.840;2023-03-31T05:36:04;5.73;;;2.83;;
19049;SDS011;9657;45.940;12.840;2023-03-31T05:38:32;4.60;;;2.43;;
19049;SDS011;9657;45.940;12.840;2023-03-31T05:40:59;4.60;;;2.03;;
19049;SDS011;9657;45.940;12.840;2023-03-31T05:43:26;4.57;;;2.10;;
19049;SDS011;9657;45.940;12.840;2023-03-31T05:45:53;4.97;;;2.40;;
19049;SDS011;9657;45.940;12.840;2023-03-31T05:48:20;4.07;;;2.27;;
19049;SDS011;9657;45.940;12.840;2023-03-31T05:50:49;2.87;;;2.47;;
19049;SDS011;9657;45.940;12.840;2023-03-31T05:53:16;5.10;;;2.20;;
19049;SDS011;9657;45.940;12.840;2023-03-31T05:55:43;2.80;;;2.10;;
19049;SDS011;9657;45.940;12.840;2023-03-31T05:58:10;3.27;;;2.10;;
19049;SDS011;9657;45.940;12.840;2023-03-31T06:00:37;2.83;;;2.03;;
19049;SDS011;9657;45.940;12.840;2023-03-31T06:03:04;2.67;;;2.27;;
19049;SDS011;9657;45.940;12.840;2023-03-31T06:05:32;5.10;;;2.13;;
19049;SDS011;9657;45.940;12.840;2023-03-31T06:08:01;4.13;;;2.30;;
19049;SDS011;9657;45.940;12.840;2023-03-31T06:10:28;4.30;;;2.17;;
19049;SDS011;9657;45.940;12.840;2023-03-31T06:12:55;3.60;;;2.10;;
19049;SDS011;9657;45.940;12.840;2023-03-31T06:15:22;2.53;;;1.77;;
19049;SDS011;9657;45.940;12.840;2023-03-31T06:17:49;2.57;;;2.20;;
19049;SDS011;9657;45.940;12.840;2023-03-31T06:20:16;3.20;;;1.90;;
19049;SDS011;9657;45.940;12.840;2023-03-31T06:22:43;3.77;;;2.17;;
19049;SDS011;9657;45.940;12.840;2023-03-31T06:25:12;4.07;;;1.93;;
19049;SDS011;9657;45.940;12.840;2023-03-31T06:27:39;2.10;;;1.90;;
19049;SDS011;9657;45.940;12.840;2023-03-31T06:30:06;2.77;;;2.10;;
19049;SDS011;9657;45.940;12.840;2023-03-31T06:32:34;2.33;;;1.93;;
19049;SDS011;9657;45.940;12.840;2023-03-31T06:35:01;3.10;;;2.37;;
19049;SDS011;9657;45.940;12.840;2023-03-31T06:37:28;3.37;;;2.10;;
19049;SDS011;9657;45.940;12.840;2023-03-31T06:39:55;3.47;;;2.07;;
19049;SDS011;9657;45.940;12.840;2023-03-31T06:42:23;4.13;;;2.07;;
19049;SDS011;9657;45.940;12.840;2023-03-31T06:44:51;5.53;;;2.23;;
19049;SDS011;9657;45.940;12.840;2023-03-31T06:47:19;2.73;;;2.10;;
19049;SDS011;9657;45.940;12.840;2023-03-31T06:49:46;6.53;;;2.37;;
19049;SDS011;9657;45.940;12.840;2023-03-31T06:52:13;2.33;;;2.10;;
19049;SDS011;9657;45.940;12.840;2023-03-31T06:54:40;3.27;;;2.40;;
19049;SDS011;9657;45.940;12.840;2023-03-31T06:57:07;4.03;;;2.30;;
19049;SDS011;9657;45.940;12.840;2023-03-31T06:59:36;3.83;;;2.10;;
19049;SDS011;9657;45.940;12.840;2023-03-31T07:02:03;5.43;;;2.33;;
19049;SDS011;9657;45.940;12.840;2023-03-31T07:04:30;6.70;;;2.77;;
19049;SDS011;9657;45.940;12.840;2023-03-31T07:06:57;5.87;;;2.53;;
19049;SDS011;9657;45.940;12.840;2023-03-31T07:09:24;7.73;;;2.63;;
19049;SDS011;9657;45.940;12.840;2023-03-31T07:11:51;4.90;;;2.40;;
19049;SDS011;9657;45.940;12.840;2023-03-31T07:14:18;4.93;;;2.23;;
19049;SDS011;9657;45.940;12.840;2023-03-31T07:16:48;6.63;;;3.20;;
19049;SDS011;9657;45.940;12.840;2023-03-31T07:19:16;5.53;;;2.87;;
19049;SDS011;9657;45.940;12.840;2023-03-31T07:21:43;6.27;;;2.30;;
19049;SDS011;9657;45.940;12.840;2023-03-31T07:24:10;7.87;;;2.60;;
19049;SDS011;9657;45.940;12.840;2023-03-31T07:26:37;8.93;;;3.70;;
19049;SDS011;9657;45.940;12.840;2023-03-31T07:29:04;4.70;;;2.87;;
19049;SDS011;9657;45.940;12.840;2023-03-31T07:31:31;9.20;;;2.80;;
19049;SDS011;9657;45.940;12.840;2023-03-31T07:33:59;5.10;;;2.50;;
19049;SDS011;9657;45.940;12.840;2023-03-31T07:36:27;8.10;;;2.60;;
19049;SDS011;9657;45.940;12.840;2023-03-31T07:38:55;5.53;;;2.47;;
19049;SDS011;9657;45.940;12.840;2023-03-31T07:41:22;10.73;;;3.87;;
19049;SDS011;9657;45.940;12.840;2023-03-31T07:43:50;5.17;;;2.70;;
19049;SDS011;9657;45.940;12.840;2023-03-31T07:46:18;6.37;;;2.80;;
19049;SDS011;9657;45.940;12.840;2023-03-31T07:48:48;7.00;;;2.60;;
19049;SDS011;9657;45.940;12.840;2023-03-31T07:51:17;6.23;;;3.03;;
19049;SDS011;9657;45.940;12.840;2023-03-31T07:53:46;8.10;;;3.00;;
19049;SDS011;9657;45.940;12.840;2023-03-31T07:56:16;9.07;;;3.53;;
19049;SDS011;9657;45.940;12.840;2023-03-31T07:58:43;6.93;;;2.70;;
19049;SDS011;9657;45.940;12.840;2023-03-31T08:01:12;6.77;;;2.90;;
19049;SDS011;9657;45.940;12.840;2023-03-31T08:03:42;7.37;;;2.80;;
19049;SDS011;9657;45.940;12.840;2023-03-31T08:06:09;6.20;;;2.73;;
19049;SDS011;9657;45.940;12.840;2023-03-31T08:08:37;5.67;;;2.37;;
19049;SDS011;9657;45.940;12.840;2023-03-31T08:11:07;4.97;;;2.50;;
19049;SDS011;9657;45.940;12.840;2023-03-31T08:13:34;6.10;;;2.63;;
19049;SDS011;9657;45.940;12.840;2023-03-31T08:16:01;4.17;;;2.37;;
19049;SDS011;9657;45.940;12.840;2023-03-31T08:18:28;7.00;;;2.90;;
19049;SDS011;9657;45.940;12.840;2023-03-31T08:20:55;6.60;;;2.80;;
19049;SDS011;9657;45.940;12.840;2023-03-31T08:23:22;7.40;;;2.67;;
19049;SDS011;9657;45.940;12.840;2023-03-31T08:25:51;5.00;;;2.20;;
19049;SDS011;9657;45.940;12.840;2023-03-31T08:28:18;6.03;;;2.63;;
19049;SDS011;9657;45.940;12.840;2023-03-31T08:30:45;6.10;;;2.50;;
19049;SDS011;9657;45.940;12.840;2023-03-31T08:33:12;8.40;;;3.13;;
19049;SDS011;9657;45.940;12.840;2023-03-31T08:35:39;7.03;;;2.37;;
19049;SDS011;9657;45.940;12.840;2023-03-31T08:38:06;4.20;;;2.37;;
19049;SDS011;9657;45.940;12.840;2023-03-31T08:40:33;3.97;;;2.43;;
19049;SDS011;9657;45.940;12.840;2023-03-31T08:43:03;5.07;;;2.70;;
19049;SDS011;9657;45.940;12.840;2023-03-31T08:45:36;6.57;;;2.63;;
19049;SDS011;9657;45.940;12.840;2023-03-31T08:48:09;4.33;;;2.73;;
19049;SDS011;9657;45.940;12.840;2023-03-31T08:50:46;6.87;;;2.63;;
19049;SDS011;9657;45.940;12.840;2023-03-31T08:53:19;4.23;;;2.70;;
19049;SDS011;9657;45.940;12.840;2023-03-31T08:55:50;6.23;;;2.63;;
19049;SDS011;9657;45.940;12.840;2023-03-31T08:58:26;10.87;;;2.83;;
19049;SDS011;9657;45.940;12.840;2023-03-31T09:00:58;6.27;;;2.60;;
19049;SDS011;9657;45.940;12.840;2023-03-31T09:03:30;6.60;;;3.23;;
19049;SDS011;9657;45.940;12.840;2023-03-31T09:06:04;5.53;;;2.60;;
19049;SDS011;9657;45.940;12.840;2023-03-31T09:08:37;6.37;;;2.70;;
19049;SDS011;9657;45.940;12.840;2023-03-31T09:11:10;4.67;;;2.70;;
19049;SDS011;9657;45.940;12.840;2023-03-31T09:14:06;5.67;;;2.40;;
19049;SDS011;9657;45.940;12.840;2023-03-31T09:16:44;4.83;;;2.33;;
19049;SDS011;9657;45.940;12.840;2023-03-31T09:19:18;4.20;;;2.97;;
19049;SDS011;9657;45.940;12.840;2023-03-31T09:21:52;5.47;;;2.70;;
19049;SDS011;9657;45.940;12.840;2023-03-31T09:24:22;4.33;;;2.57;;
19049;SDS011;9657;45.940;12.840;2023-03-31T09:26:53;3.30;;;2.53;;
19049;SDS011;9657;45.940;12.840;2023-03-31T09:29:27;5.93;;;2.80;;
19049;SDS011;9657;45.940;12.840;2023-03-31T09:32:00;4.47;;;2.80;;
19049;SDS011;9657;45.940;12.840;2023-03-31T09:34:34;5.60;;;3.03;;
19049;SDS011;9657;45.940;12.840;2023-03-31T09:37:02;4.97;;;2.87;;
19049;SDS011;9657;45.940;12.840;2023-03-31T09:39:29;6.63;;;3.07;;
19049;SDS011;9657;45.940;12.840;2023-03-31T09:41:56;4.03;;;2.93;;
19049;SDS011;9657;45.940;12.840;2023-03-31T09:44:27;5.97;;;2.77;;
19049;SDS011;9657;45.940;12.840;2023-03-31T09:46:58;4.57;;;2.80;;
19049;SDS011;9657;45.940;12.840;2023-03-31T09:49:27;4.67;;;2.77;;
19049;SDS011;9657;45.940;12.840;2023-03-31T09:52:00;5.33;;;3.00;;
19049;SDS011;9657;45.940;12.840;2023-03-31T09:54:34;5.67;;;2.83;;
19049;SDS011;9657;45.940;12.840;2023-03-31T09:57:11;5.13;;;3.03;;
19049;SDS011;9657;45.940;12.840;2023-03-31T09:59:41;3.60;;;2.50;;
19049;SDS011;9657;45.940;12.840;2023-03-31T10:02:21;4.10;;;2.80;;
19049;SDS011;9657;45.940;12.840;2023-03-31T10:04:59;4.90;;;2.60;;
19049;SDS011;9657;45.940;12.840;2023-03-31T10:07:26;4.60;;;2.67;;
19049;SDS011;9657;45.940;12.840;2023-03-31T10:09:53;4.70;;;2.73;;
19049;SDS011;9657;45.940;12.840;2023-03-31T10:12:22;4.90;;;2.80;;
19049;SDS011;9657;45.940;12.840;2023-03-31T10:14:53;4.13;;;2.30;;
19049;SDS011;9657;45.940;12.840;2023-03-31T10:17:42;4.33;;;2.87;;
19049;SDS011;9657;45.940;12.840;2023-03-31T10:20:16;5.87;;;2.63;;
19049;SDS011;9657;45.940;12.840;2023-03-31T10:22:46;3.10;;;2.50;;
19049;SDS011;9657;45.940;12.840;2023-03-31T10:25:14;4.43;;;2.97;;
19049;SDS011;9657;45.940;12.840;2023-03-31T10:27:44;4.57;;;2.90;;
19049;SDS011;9657;45.940;12.840;2023-03-31T10:30:17;6.80;;;3.10;;
19049;SDS011;9657;45.940;12.840;2023-03-31T10:32:47;3.83;;;2.47;;
19049;SDS011;9657;45.940;12.840;2023-03-31T10:35:21;3.30;;;3.00;;
19049;SDS011;9657;45.940;12.840;2023-03-31T10:37:53;4.23;;;3.00;;
19049;SDS011;9657;45.940;12.840;2023-03-31T10:40:23;6.33;;;3.17;;
19049;SDS011;9657;45.940;12.840;2023-03-31T10:42:58;6.20;;;2.80;;
19049;SDS011;9657;45.940;12.840;2023-03-31T10:45:31;7.43;;;2.97;;
19049;SDS011;9657;45.940;12.840;2023-03-31T10:48:03;3.07;;;2.63;;
19049;SDS011;9657;45.940;12.840;2023-03-31T10:50:41;3.87;;;2.43;;
19049;SDS011;9657;45.940;12.840;2023-03-31T10:53:10;3.10;;;2.80;;
19049;SDS011;9657;45.940;12.840;2023-03-31T10:55:41;10.07;;;3.43;;
19049;SDS011;9657;45.940;12.840;2023-03-31T10:58:18;4.30;;;2.63;;
19049;SDS011;9657;45.940;12.840;2023-03-31T11:01:02;6.07;;;3.17;;
19049;SDS011;9657;45.940;12.840;2023-03-31T11:06:30;5.17;;;2.83;;
19049;SDS011;9657;45.940;12.840;2023-03-31T11:09:07;3.23;;;2.40;;
19049;SDS011;9657;45.940;12.840;2023-03-31T11:11:47;5.87;;;3.23;;
19049;SDS011;9657;45.940;12.840;2023-03-31T11:14:24;4.60;;;2.53;;
19049;SDS011;9657;45.940;12.840;2023-03-31T11:17:01;4.53;;;2.80;;
19049;SDS011;9657;45.940;12.840;2023-03-31T11:19:37;4.97;;;2.70;;
19049;SDS011;9657;45.940;12.840;2023-03-31T11:22:11;3.67;;;2.90;;
19049;SDS011;9657;45.940;12.840;2023-03-31T11:24:52;4.10;;;2.43;;
19049;SDS011;9657;45.940;12.840;2023-03-31T11:27:37;3.30;;;3.00;;
19049;SDS011;9657;45.940;12.840;2023-03-31T11:30:17;3.40;;;2.50;;
19049;SDS011;9657;45.940;12.840;2023-03-31T11:32:55;6.27;;;2.90;;
19049;SDS011;9657;45.940;12.840;2023-03-31T11:35:38;4.90;;;3.40;;
19049;SDS011;9657;45.940;12.840;2023-03-31T11:38:26;4.10;;;2.73;;
19049;SDS011;9657;45.940;12.840;2023-03-31T11:41:06;5.10;;;2.87;;
19049;SDS011;9657;45.940;12.840;2023-03-31T11:43:38;6.07;;;3.67;;
19049;SDS011;9657;45.940;12.840;2023-03-31T11:46:10;5.23;;;2.90;;
19049;SDS011;9657;45.940;12.840;2023-03-31T11:48:42;6.03;;;3.13;;
19049;SDS011;9657;45.940;12.840;2023-03-31T11:51:14;5.83;;;3.60;;
19049;SDS011;9657;45.940;12.840;2023-03-31T11:53:45;5.90;;;3.43;;
19049;SDS011;9657;45.940;12.840;2023-03-31T11:56:13;5.23;;;2.90;;
19049;SDS011;9657;45.940;12.840;2023-03-31T11:58:43;3.67;;;2.97;;
19049;SDS011;9657;45.940;12.840;2023-03-31T12:01:15;5.13;;;3.37;;
19049;SDS011;9657;45.940;12.840;2023-03-31T12:03:50;5.37;;;3.63;;
19049;SDS011;9657;45.940;12.840;2023-03-31T12:06:22;5.20;;;2.90;;
19049;SDS011;9657;45.940;12.840;2023-03-31T12:08:56;3.30;;;3.00;;
19049;SDS011;9657;45.940;12.840;2023-03-31T12:11:33;4.20;;;3.57;;
19049;SDS011;9657;45.940;12.840;2023-03-31T12:14:09;4.13;;;3.10;;
19049;SDS011;9657;45.940;12.840;2023-03-31T12:16:45;9.20;;;3.90;;
19049;SDS011;9657;45.940;12.840;2023-03-31T12:19:16;6.47;;;3.17;;
19049;SDS011;9657;45.940;12.840;2023-03-31T12:21:48;4.27;;;3.10;;
19049;SDS011;9657;45.940;12.840;2023-03-31T12:24:18;4.70;;;3.60;;
19049;SDS011;9657;45.940;12.840;2023-03-31T12:26:48;4.27;;;3.20;;
19049;SDS011;9657;45.940;12.840;2023-03-31T12:29:25;4.37;;;3.00;;
19049;SDS011;9657;45.940;12.840;2023-03-31T12:31:56;4.00;;;3.27;;
19049;SDS011;9657;45.940;12.840;2023-03-31T12:34:27;4.17;;;3.20;;
19049;SDS011;9657;45.940;12.840;2023-03-31T12:36:59;6.53;;;3.27;;
19049;SDS011;9657;45.940;12.840;2023-03-31T12:39:37;4.60;;;3.50;;
19049;SDS011;9657;45.940;12.840;2023-03-31T12:42:30;4.40;;;3.60;;
19049;SDS011;9657;45.940;12.840;2023-03-31T12:45:05;4.47;;;3.53;;
19049;SDS011;9657;45.940;12.840;2023-03-31T12:47:44;4.90;;;3.60;;
19049;SDS011;9657;45.940;12.840;2023-03-31T12:50:31;5.50;;;3.30;;
19049;SDS011;9657;45.940;12.840;2023-03-31T12:53:10;4.20;;;3.10;;
19049;SDS011;9657;45.940;12.840;2023-03-31T12:55:45;5.43;;;3.47;;
19049;SDS011;9657;45.940;12.840;2023-03-31T12:58:35;4.53;;;3.70;;
19049;SDS011;9657;45.940;12.840;2023-03-31T13:01:07;4.73;;;3.70;;
19049;SDS011;9657;45.940;12.840;2023-03-31T13:03:45;6.47;;;3.00;;
19049;SDS011;9657;45.940;12.840;2023-03-31T13:12:23;4.63;;;3.30;;
19049;SDS011;9657;45.940;12.840;2023-03-31T13:14:52;3.90;;;3.23;;
19049;SDS011;9657;45.940;12.840;2023-03-31T13:17:25;4.87;;;3.33;;
19049;SDS011;9657;45.940;12.840;2023-03-31T13:19:54;6.00;;;3.80;;
19049;SDS011;9657;45.940;12.840;2023-03-31T13:22:29;4.97;;;3.83;;
19049;SDS011;9657;45.940;12.840;2023-03-31T13:28:10;4.97;;;3.37;;
19049;SDS011;9657;45.940;12.840;2023-03-31T13:30:56;6.03;;;3.57;;
19049;SDS011;9657;45.940;12.840;2023-03-31T13:39:32;5.53;;;3.93;;
19049;SDS011;9657;45.940;12.840;2023-03-31T13:42:36;5.30;;;3.63;;
19049;SDS011;9657;45.940;12.840;2023-03-31T13:45:26;6.53;;;4.30;;
19049;SDS011;9657;45.940;12.840;2023-03-31T13:51:14;4.63;;;3.17;;
19049;SDS011;9657;45.940;12.840;2023-03-31T13:53:56;6.13;;;4.10;;
19049;SDS011;9657;45.940;12.840;2023-03-31T13:56:51;6.57;;;3.60;;
19049;SDS011;9657;45.940;12.840;2023-03-31T13:59:42;5.57;;;3.77;;
19049;SDS011;9657;45.940;12.840;2023-03-31T14:02:44;5.90;;;3.67;;
19049;SDS011;9657;45.940;12.840;2023-03-31T14:05:23;4.60;;;3.73;;
19049;SDS011;9657;45.940;12.840;2023-03-31T14:07:55;7.50;;;4.23;;
19049;SDS011;9657;45.940;12.840;2023-03-31T14:10:25;5.03;;;4.00;;
19049;SDS011;9657;45.940;12.840;2023-03-31T14:13:05;7.43;;;4.40;;
19049;SDS011;9657;45.940;12.840;2023-03-31T14:15:34;6.83;;;4.07;;
19049;SDS011;9657;45.940;12.840;2023-03-31T14:18:04;4.33;;;3.90;;
19049;SDS011;9657;45.940;12.840;2023-03-31T14:20:44;6.20;;;4.20;;
19049;SDS011;9657;45.940;12.840;2023-03-31T14:23:20;5.60;;;4.00;;
19049;SDS011;9657;45.940;12.840;2023-03-31T14:25:58;5.50;;;4.53;;
19049;SDS011;9657;45.940;12.840;2023-03-31T14:28:37;5.77;;;4.00;;
19049;SDS011;9657;45.940;12.840;2023-03-31T14:31:29;5.67;;;4.30;;
19049;SDS011;9657;45.940;12.840;2023-03-31T14:34:19;4.43;;;4.03;;
19049;SDS011;9657;45.940;12.840;2023-03-31T14:37:08;7.30;;;4.23;;
19049;SDS011;9657;45.940;12.840;2023-03-31T14:39:39;6.10;;;4.07;;
19049;SDS011;9657;45.940;12.840;2023-03-31T14:42:09;4.90;;;4.13;;
19049;SDS011;9657;45.940;12.840;2023-03-31T14:44:38;4.30;;;3.90;;
19049;SDS011;9657;45.940;12.840;2023-03-31T14:47:12;4.03;;;3.70;;
19049;SDS011;9657;45.940;12.840;2023-03-31T14:49:41;7.60;;;4.13;;
19049;SDS011;9657;45.940;12.840;2023-03-31T14:52:13;6.90;;;3.90;;
19049;SDS011;9657;45.940;12.840;2023-03-31T14:54:43;5.00;;;4.07;;
19049;SDS011;9657;45.940;12.840;2023-03-31T14:57:12;7.50;;;4.20;;
19049;SDS011;9657;45.940;12.840;2023-03-31T14:59:42;5.97;;;3.90;;
19049;SDS011;9657;45.940;12.840;2023-03-31T15:02:12;7.07;;;4.60;;
19049;SDS011;9657;45.940;12.840;2023-03-31T15:04:45;7.37;;;4.50;;
19049;SDS011;9657;45.940;12.840;2023-03-31T15:07:15;6.73;;;4.33;;
19049;SDS011;9657;45.940;12.840;2023-03-31T15:09:43;5.90;;;3.93;;
19049;SDS011;9657;45.940;12.840;2023-03-31T15:12:14;5.43;;;4.10;;
19049;SDS011;9657;45.940;12.840;2023-03-31T15:14:45;5.43;;;4.73;;
19049;SDS011;9657;45.940;12.840;2023-03-31T15:17:18;5.27;;;4.10;;
19049;SDS011;9657;45.940;12.840;2023-03-31T15:19:52;5.67;;;4.43;;
19049;SDS011;9657;45.940;12.840;2023-03-31T15:22:21;4.60;;;4.17;;
19049;SDS011;9657;45.940;12.840;2023-03-31T15:24:50;6.30;;;3.97;;
19049;SDS011;9657;45.940;12.840;2023-03-31T15:27:18;5.57;;;3.90;;
19049;SDS011;9657;45.940;12.840;2023-03-31T15:29:53;4.83;;;3.83;;
19049;SDS011;9657;45.940;12.840;2023-03-31T15:32:22;5.30;;;3.83;;
19049;SDS011;9657;45.940;12.840;2023-03-31T15:34:53;5.17;;;3.90;;
19049;SDS011;9657;45.940;12.840;2023-03-31T15:37:21;5.20;;;4.10;;
19049;SDS011;9657;45.940;12.840;2023-03-31T15:39:53;4.67;;;4.10;;
19049;SDS011;9657;45.940;12.840;2023-03-31T15:42:22;5.40;;;4.40;;
19049;SDS011;9657;45.940;12.840;2023-03-31T15:44:53;5.30;;;4.13;;
19049;SDS011;9657;45.940;12.840;2023-03-31T15:47:22;4.77;;;4.10;;
19049;SDS011;9657;45.940;12.840;2023-03-31T15:49:56;6.37;;;4.27;;
19049;SDS011;9657;45.940;12.840;2023-03-31T15:52:26;7.40;;;4.10;;
19049;SDS011;9657;45.940;12.840;2023-03-31T15:54:57;5.60;;;4.17;;